Flight Track Log - Related Links

Times and Time Zones

All times are in EDT time to prevent confusion due to time zone crossing. See the UAL708 flight status page for this flight to view local times or setup timezone preferences in your user account.


Time Position Orientation Groundspeed Altitude Reporting Facility
EDT Latitude Longitude Course Direction KTS MPH feet Rate Location/Type
Sat 01:36:17 PM 33.9333 -118.4333 270° West 193 222 1,300  Level Southern California TRACON
Sat 01:37:12 PM 33.9333 -118.5167 270° West 244 281 3,100 2,693 Climbing Southern California TRACON
Sat 01:38:00 PM 33.9000 -118.8253 270° West  Level FlightAware Approximate
Sat 01:38:24 PM 33.9208 -118.6156 261° West 255 293 7,000  Level Los Angeles Center
Sat 01:39:00 PM 33.8778 -118.9662 264° West  Level FlightAware Approximate
Sat 01:39:26 PM 33.9144 -118.7033 265° West 266 306 9,600  Level Los Angeles Center
Sat 01:40:00 PM 33.8651 -119.1096 259° West  Level FlightAware Approximate
Sat 01:40:28 PM 33.9103 -118.7975 267° West 295 339 11,000  Level Los Angeles Center
Sat 01:41:00 PM 33.8500 -119.2520 270° West  Level FlightAware Approximate
Sat 01:41:30 PM 33.9397 -118.9061 288° West 341 392 12,900  Level Los Angeles Center
Sat 01:42:33 PM 33.9728 -119.0153 290° West 346 398 15,300 2,304 Climbing Los Angeles Center
Sat 01:43:35 PM 33.9947 -119.1586 281° West 378 435 17,700 1,984 Climbing Los Angeles Center
Sat 01:44:37 PM 33.9769 -119.2828 260° West 382 440 19,400 1,742 Climbing Los Angeles Center
Sat 01:45:39 PM 33.9578 -119.4125 260° West 393 452 21,300 1,790 Climbing Los Angeles Center
Sat 01:46:41 PM 33.9358 -119.5431 259° West 397 457 23,100 1,645 Climbing Los Angeles Center
Sat 01:47:43 PM 33.9178 -119.6761 261° West 403 464 24,700 1,597 Climbing Los Angeles Center
Sat 01:48:45 PM 33.8956 -119.8372 261° West 408 470 26,400 1,355 Climbing Los Angeles Center
Sat 01:49:47 PM 33.8767 -119.9758 261° West 419 482 27,500 1,065 Climbing Los Angeles Center
Sat 01:50:49 PM 33.8614 -120.1083 262° West 422 486 28,600 1,016 Climbing Los Angeles Center
Sat 01:51:51 PM 33.8406 -120.2533 260° West 435 501 29,600 919 Climbing Los Angeles Center
Sat 01:52:53 PM 33.8194 -120.4017 260° West 447 514 30,500 1,104 Climbing Los Angeles Center
Sat 01:53:56 PM 33.7978 -120.5511 260° West 451 519 31,900 1,296 Climbing Los Angeles Center
Sat 01:54:58 PM 33.7711 -120.7283 260° West 449 517 33,200 1,016 Climbing Los Angeles Center
Sat 01:56:00 PM 33.7494 -120.8733 260° West 443 510 34,000 387 Climbing Los Angeles Center
Sat 01:57:02 PM 33.7267 -121.0197 259° West 444 511 34,000 -48 Level Los Angeles Center
Sat 01:58:04 PM 33.7053 -121.1650 260° West 442 509 33,900 -48 Descending Los Angeles Center
Sat 01:59:06 PM 33.6831 -121.3114 260° West 443 510 33,900 48 Level Los Angeles Center
Sat 02:00:08 PM 33.6600 -121.4586 259° West 446 513 34,000 48 Climbing Los Angeles Center
Sat 02:01:10 PM 33.6317 -121.6353 259° West 448 516 34,000  Level Los Angeles Center
Sat 02:02:12 PM 33.6078 -121.7836 259° West 451 519 34,000  Level Los Angeles Center
Sat 02:03:14 PM 33.5847 -121.9314 259° West 452 520 34,000  Level Los Angeles Center
Sat 02:04:17 PM 33.5628 -122.0806 260° West 452 520 34,000  Level Los Angeles Center
Sat 02:05:19 PM 33.5383 -122.2292 259° West 454 522 34,000  Level Los Angeles Center
Sat 02:06:21 PM 33.5117 -122.3747 258° West 452 520 34,000  Level Los Angeles Center
Sat 02:07:23 PM 33.4808 -122.5511 258° West 452 520 34,000  Level Los Angeles Center
Sat 02:09:00 PM 33.4283 -122.7756 257° West  Level FlightAware Approximate
Sat 02:16:00 PM 33.2284 -123.7506 256° West  Level FlightAware Approximate
Sat 02:17:00 PM 33.1992 -123.8895 256° West  Level FlightAware Approximate
Sat 02:18:00 PM 33.1699 -124.0284 256° West  Level FlightAware Approximate
Sat 02:19:00 PM 33.1404 -124.1671 256° West  Level FlightAware Approximate
Sat 02:20:00 PM 33.1108 -124.3057 256° West  Level FlightAware Approximate
Sat 02:21:00 PM 33.0785 -124.4430 239° Southwest  Level FlightAware Approximate
Sat 02:22:00 PM 33.0525 -124.5799 255° West  Level FlightAware Approximate
Sat 02:22:41 PM 33.0667 -124.5167 255° West 450 518 34,000  Level Oakland Oceanic (ODAPS)
Sat 02:23:00 PM 33.0216 -124.7180 255° West  Level FlightAware Approximate
Sat 02:24:00 PM 32.9905 -124.8560 255° West  Level FlightAware Approximate
Sat 02:25:00 PM 32.9592 -124.9939 255° West  Level FlightAware Approximate
Sat 02:26:00 PM 32.9278 -125.1317 255° West  Level FlightAware Approximate
Sat 02:27:00 PM 32.8961 -125.2701 255° West  Level FlightAware Approximate
Sat 02:28:00 PM 32.8045 -125.6655 254° West 450 518 34,000  Level FlightAware Transoceanic
Sat 02:29:00 PM 32.7710 -125.8086 254° West 450 518 34,000  Level FlightAware Transoceanic
Sat 02:30:00 PM 32.7373 -125.9516 254° West 450 518 34,000  Level FlightAware Transoceanic
Sat 02:31:00 PM 32.7035 -126.0945 254° West 450 518 34,000  Level FlightAware Transoceanic
Sat 02:32:00 PM 32.6695 -126.2373 254° West 450 518 34,000  Level FlightAware Transoceanic
Sat 02:33:00 PM 32.6353 -126.3800 254° West 450 518 34,000  Level FlightAware Transoceanic
Sat 02:34:00 PM 32.6010 -126.5226 254° West 450 518 34,000  Level FlightAware Transoceanic
Sat 02:35:00 PM 32.5665 -126.6650 254° West 450 518 34,000  Level FlightAware Transoceanic
Sat 02:36:00 PM 32.5319 -126.8074 254° West 450 518 34,000  Level FlightAware Transoceanic
Sat 02:37:00 PM 32.4971 -126.9497 254° West 450 518 34,000  Level FlightAware Transoceanic
Sat 02:38:00 PM 32.4621 -127.0918 254° West 450 518 34,000  Level FlightAware Transoceanic
Sat 02:39:00 PM 32.4270 -127.2338 254° West 450 518 34,000  Level FlightAware Transoceanic
Sat 02:40:00 PM 32.3917 -127.3757 254° West 450 518 34,000  Level FlightAware Transoceanic
Sat 02:41:00 PM 32.3563 -127.5175 253° West 450 518 34,000  Level FlightAware Transoceanic
Sat 02:42:00 PM 32.3207 -127.6592 253° West 450 518 34,000  Level FlightAware Transoceanic
Sat 02:43:00 PM 32.2850 -127.8008 253° West 450 518 34,000  Level FlightAware Transoceanic
Sat 02:44:00 PM 32.2490 -127.9423 253° West 450 518 34,000  Level FlightAware Transoceanic
Sat 02:45:00 PM 32.2130 -128.0837 253° West 450 518 34,000  Level FlightAware Transoceanic
Sat 02:46:00 PM 32.1767 -128.2249 253° West 450 518 34,000  Level FlightAware Transoceanic
Sat 02:47:00 PM 32.1404 -128.3660 253° West 450 518 34,000  Level FlightAware Transoceanic
Sat 02:48:00 PM 32.1038 -128.5071 253° West 450 518 34,000  Level FlightAware Transoceanic
Sat 02:49:00 PM 32.0671 -128.6480 253° West 450 518 34,000  Level FlightAware Transoceanic
Sat 02:50:00 PM 32.0303 -128.7888 253° West 450 518 34,000  Level FlightAware Transoceanic
Sat 02:51:00 PM 31.9933 -128.9294 253° West 450 518 34,000  Level FlightAware Transoceanic
Sat 02:52:00 PM 31.9561 -129.0700 253° West 450 518 34,000  Level FlightAware Transoceanic
Sat 02:53:00 PM 31.9188 -129.2105 253° West 450 518 34,000  Level FlightAware Transoceanic
Sat 02:54:00 PM 31.8813 -129.3508 253° West 450 518 34,000  Level FlightAware Transoceanic
Sat 02:55:00 PM 31.8437 -129.4910 252° West 450 518 34,000  Level FlightAware Transoceanic
Sat 02:56:00 PM 31.8059 -129.6311 252° West 450 518 34,000  Level FlightAware Transoceanic
Sat 02:57:00 PM 31.7680 -129.7711 252° West 450 518 34,000  Level FlightAware Transoceanic
Sat 02:58:00 PM 31.7299 -129.9110 252° West 450 518 34,000  Level FlightAware Transoceanic
Sat 02:59:00 PM 31.6917 -130.0508 252° West 450 518 34,000  Level FlightAware Transoceanic
Sat 03:00:00 PM 31.6533 -130.1904 252° West 450 518 34,000  Level FlightAware Transoceanic
Sat 03:01:00 PM 31.6147 -130.3300 252° West 450 518 34,000  Level FlightAware Transoceanic
Sat 03:02:00 PM 31.5760 -130.4694 252° West 450 518 34,000  Level FlightAware Transoceanic
Sat 03:03:00 PM 31.5372 -130.6087 252° West 450 518 34,000  Level FlightAware Transoceanic
Sat 03:04:00 PM 31.4982 -130.7479 252° West 450 518 34,000  Level FlightAware Transoceanic
Sat 03:05:00 PM 31.4590 -130.8869 252° West 450 518 34,000  Level FlightAware Transoceanic
Sat 03:06:00 PM 31.4197 -131.0259 252° West 450 518 34,000  Level FlightAware Transoceanic
Sat 03:07:00 PM 31.3803 -131.1647 252° West 450 518 34,000  Level FlightAware Transoceanic
Sat 03:08:00 PM 31.3407 -131.3035 251° West 450 518 34,000  Level FlightAware Transoceanic
Sat 03:09:00 PM 31.3009 -131.4421 251° West 450 518 34,000  Level FlightAware Transoceanic
Sat 03:10:00 PM 31.2610 -131.5806 251° West 450 518 34,000  Level FlightAware Transoceanic
Sat 03:11:00 PM 31.2210 -131.7189 251° West 450 518 34,000  Level FlightAware Transoceanic
Sat 03:12:00 PM 31.1808 -131.8572 251° West 450 518 34,000  Level FlightAware Transoceanic
Sat 03:13:00 PM 31.1405 -131.9953 251° West 450 518 34,000  Level FlightAware Transoceanic
Sat 03:14:00 PM 31.1000 -132.1333 251° West 450 518 34,000  Level FlightAware Transoceanic
Sat 03:15:00 PM 31.0577 -132.2770 251° West 450 518 34,000  Level FlightAware Transoceanic
Sat 03:15:57 PM 31.1000 -132.1333 251° West 468 539 34,000  Level Oakland Oceanic (ODAPS)
Sat 03:16:00 PM 31.0153 -132.4206 251° West 450 518 34,000  Level FlightAware Transoceanic
Sat 03:17:00 PM 30.9727 -132.5640 251° West 450 518 34,000  Level FlightAware Transoceanic
Sat 03:18:00 PM 30.9300 -132.7073 251° West 450 518 34,000  Level FlightAware Transoceanic
Sat 03:19:00 PM 30.8871 -132.8505 251° West 450 518 34,000  Level FlightAware Transoceanic
Sat 03:20:00 PM 30.8440 -132.9935 251° West 450 518 34,000  Level FlightAware Transoceanic
Sat 03:21:00 PM 30.8008 -133.1365 251° West 450 518 34,000  Level FlightAware Transoceanic
Sat 03:22:00 PM 30.7139 -133.4219 250° West 468 539 34,000  Level FlightAware Transoceanic
Sat 03:23:00 PM 30.6702 -133.5645 250° West 468 539 34,000  Level FlightAware Transoceanic
Sat 03:24:00 PM 30.6263 -133.7069 250° West 468 539 34,000  Level FlightAware Transoceanic
Sat 03:25:00 PM 30.5823 -133.8491 250° West 468 539 34,000  Level FlightAware Transoceanic
Sat 03:26:00 PM 30.5382 -133.9913 250° West 468 539 34,000  Level FlightAware Transoceanic
Sat 03:27:00 PM 30.4939 -134.1333 250° West 468 539 34,000  Level FlightAware Transoceanic
Sat 03:28:00 PM 30.4494 -134.2752 250° West 468 539 34,000  Level FlightAware Transoceanic
Sat 03:29:00 PM 30.4048 -134.4169 250° West 468 539 34,000  Level FlightAware Transoceanic
Sat 03:30:00 PM 30.3600 -134.5586 250° West 468 539 34,000  Level FlightAware Transoceanic
Sat 03:31:00 PM 30.3151 -134.7001 250° West 468 539 34,000  Level FlightAware Transoceanic
Sat 03:32:00 PM 30.2700 -134.8414 250° West 468 539 34,000  Level FlightAware Transoceanic
Sat 03:33:00 PM 30.2248 -134.9827 250° West 468 539 34,000  Level FlightAware Transoceanic
Sat 03:34:00 PM 30.1794 -135.1238 250° West 468 539 34,000  Level FlightAware Transoceanic
Sat 03:35:00 PM 30.1339 -135.2648 249° West 468 539 34,000  Level FlightAware Transoceanic
Sat 03:36:00 PM 30.0882 -135.4056 249° West 468 539 34,000  Level FlightAware Transoceanic
Sat 03:37:00 PM 30.0424 -135.5463 249° West 468 539 34,000  Level FlightAware Transoceanic
Sat 03:38:00 PM 29.9964 -135.6869 249° West 468 539 34,000  Level FlightAware Transoceanic
Sat 03:39:00 PM 29.9503 -135.8274 249° West 468 539 34,000  Level FlightAware Transoceanic
Sat 03:40:00 PM 29.9040 -135.9677 249° West 468 539 34,000  Level FlightAware Transoceanic
Sat 03:41:00 PM 29.8576 -136.1079 249° West 468 539 34,000  Level FlightAware Transoceanic
Sat 03:42:00 PM 29.8110 -136.2479 249° West 468 539 34,000  Level FlightAware Transoceanic
Sat 03:43:00 PM 29.7643 -136.3879 249° West 468 539 34,000  Level FlightAware Transoceanic
Sat 03:44:00 PM 29.7174 -136.5277 249° West 468 539 34,000  Level FlightAware Transoceanic
Sat 03:45:00 PM 29.6704 -136.6673 249° West 468 539 34,000  Level FlightAware Transoceanic
Sat 03:46:00 PM 29.6233 -136.8069 249° West 468 539 34,000  Level FlightAware Transoceanic
Sat 03:47:00 PM 29.5760 -136.9463 249° West 468 539 34,000  Level FlightAware Transoceanic
Sat 03:48:00 PM 29.5285 -137.0856 249° West 468 539 34,000  Level FlightAware Transoceanic
Sat 03:49:00 PM 29.4809 -137.2247 249° West 468 539 34,000  Level FlightAware Transoceanic
Sat 03:50:00 PM 29.4332 -137.3638 248° West 468 539 34,000  Level FlightAware Transoceanic
Sat 03:51:00 PM 29.3853 -137.5026 248° West 468 539 34,000  Level FlightAware Transoceanic
Sat 03:52:00 PM 29.3373 -137.6414 248° West 468 539 34,000  Level FlightAware Transoceanic
Sat 03:53:00 PM 29.2891 -137.7800 248° West 468 539 34,000  Level FlightAware Transoceanic
Sat 03:54:00 PM 29.2408 -137.9185 248° West 468 539 34,000  Level FlightAware Transoceanic
Sat 03:55:00 PM 29.1923 -138.0569 248° West 468 539 34,000  Level FlightAware Transoceanic
Sat 03:56:00 PM 29.1437 -138.1951 248° West 468 539 34,000  Level FlightAware Transoceanic
Sat 03:57:00 PM 29.0950 -138.3332 248° West 468 539 34,000  Level FlightAware Transoceanic
Sat 03:58:00 PM 29.0461 -138.4712 248° West 468 539 34,000  Level FlightAware Transoceanic
Sat 03:59:00 PM 28.9971 -138.6090 248° West 468 539 34,000  Level FlightAware Transoceanic
Sat 04:00:00 PM 28.9479 -138.7467 248° West 468 539 34,000  Level FlightAware Transoceanic
Sat 04:01:00 PM 28.8986 -138.8843 248° West 468 539 34,000  Level FlightAware Transoceanic
Sat 04:02:00 PM 28.8492 -139.0218 248° West 468 539 34,000  Level FlightAware Transoceanic
Sat 04:03:00 PM 28.7996 -139.1591 248° West 468 539 34,000  Level FlightAware Transoceanic
Sat 04:04:00 PM 28.7499 -139.2963 248° West 468 539 34,000  Level FlightAware Transoceanic
Sat 04:05:00 PM 28.7000 -139.4333 247° West 468 539 34,000  Level FlightAware Transoceanic
Sat 04:06:00 PM 28.6512 -139.5659 247° West 468 539 34,000  Level FlightAware Transoceanic
Sat 04:07:00 PM 28.6023 -139.6984 247° West 468 539 34,000  Level FlightAware Transoceanic
Sat 04:08:00 PM 28.5532 -139.8308 247° West 468 539 34,000  Level FlightAware Transoceanic
Sat 04:08:57 PM 28.7000 -139.4333 247° West 463 533 34,000  Level Oakland Oceanic (ODAPS)
Sat 04:09:00 PM 28.5040 -139.9630 247° West 468 539 34,000  Level FlightAware Transoceanic
Sat 04:10:00 PM 28.4547 -140.0951 247° West 468 539 34,000  Level FlightAware Transoceanic
Sat 04:11:00 PM 28.4053 -140.2271 247° West 468 539 34,000  Level FlightAware Transoceanic
Sat 04:12:00 PM 28.3557 -140.3590 247° West 468 539 34,000  Level FlightAware Transoceanic
Sat 04:13:00 PM 28.3060 -140.4907 247° West 468 539 34,000  Level FlightAware Transoceanic
Sat 04:14:00 PM 28.2562 -140.6223 247° West 468 539 34,000  Level FlightAware Transoceanic
Sat 04:15:00 PM 28.2474 -140.6456 247° West 463 533 34,000  Level FlightAware Transoceanic
Sat 04:16:00 PM 28.1965 -140.7796 247° West 463 533 34,000  Level FlightAware Transoceanic
Sat 04:17:00 PM 28.1454 -140.9135 247° West 463 533 34,000  Level FlightAware Transoceanic
Sat 04:18:00 PM 28.0942 -141.0473 247° West 463 533 34,000  Level FlightAware Transoceanic
Sat 04:19:00 PM 28.0429 -141.1810 246° West 463 533 34,000  Level FlightAware Transoceanic
Sat 04:20:00 PM 27.9914 -141.3145 246° West 463 533 34,000  Level FlightAware Transoceanic
Sat 04:21:00 PM 27.9398 -141.4479 246° West 463 533 34,000  Level FlightAware Transoceanic
Sat 04:22:00 PM 27.8881 -141.5812 246° West 463 533 34,000  Level FlightAware Transoceanic
Sat 04:23:00 PM 27.8362 -141.7144 246° West 463 533 34,000  Level FlightAware Transoceanic
Sat 04:24:00 PM 27.7843 -141.8474 246° West 463 533 34,000  Level FlightAware Transoceanic
Sat 04:25:00 PM 27.7322 -141.9803 246° West 463 533 34,000  Level FlightAware Transoceanic
Sat 04:26:00 PM 27.6799 -142.1131 246° West 463 533 34,000  Level FlightAware Transoceanic
Sat 04:27:00 PM 27.6276 -142.2457 246° West 463 533 34,000  Level FlightAware Transoceanic
Sat 04:28:00 PM 27.5751 -142.3783 246° West 463 533 34,000  Level FlightAware Transoceanic
Sat 04:29:00 PM 27.5225 -142.5107 246° West 463 533 34,000  Level FlightAware Transoceanic
Sat 04:30:00 PM 27.4697 -142.6429 246° West 463 533 34,000  Level FlightAware Transoceanic
Sat 04:31:00 PM 27.4169 -142.7751 246° West 463 533 34,000  Level FlightAware Transoceanic
Sat 04:32:00 PM 27.3639 -142.9071 246° West 463 533 34,000  Level FlightAware Transoceanic
Sat 04:33:00 PM 27.3108 -143.0390 246° West 463 533 34,000  Level FlightAware Transoceanic
Sat 04:34:00 PM 27.2575 -143.1707 246° West 463 533 34,000  Level FlightAware Transoceanic
Sat 04:35:00 PM 27.2042 -143.3024 245° Southwest 463 533 34,000  Level FlightAware Transoceanic
Sat 04:36:00 PM 27.1507 -143.4339 245° Southwest 463 533 34,000  Level FlightAware Transoceanic
Sat 04:37:00 PM 27.0971 -143.5652 245° Southwest 463 533 34,000  Level FlightAware Transoceanic
Sat 04:38:00 PM 27.0434 -143.6965 245° Southwest 463 533 34,000  Level FlightAware Transoceanic
Sat 04:39:00 PM 26.9895 -143.8276 245° Southwest 463 533 34,000  Level FlightAware Transoceanic
Sat 04:40:00 PM 26.9356 -143.9586 245° Southwest 463 533 34,000  Level FlightAware Transoceanic
Sat 04:41:00 PM 26.8815 -144.0895 245° Southwest 463 533 34,000  Level FlightAware Transoceanic
Sat 04:42:00 PM 26.8273 -144.2203 245° Southwest 463 533 34,000  Level FlightAware Transoceanic
Sat 04:43:00 PM 26.7730 -144.3509 245° Southwest 463 533 34,000  Level FlightAware Transoceanic
Sat 04:44:00 PM 26.7185 -144.4814 245° Southwest 463 533 34,000  Level FlightAware Transoceanic
Sat 04:45:00 PM 26.6639 -144.6118 245° Southwest 463 533 34,000  Level FlightAware Transoceanic
Sat 04:46:00 PM 26.6093 -144.7421 245° Southwest 463 533 34,000  Level FlightAware Transoceanic
Sat 04:47:00 PM 26.5545 -144.8722 245° Southwest 463 533 34,000  Level FlightAware Transoceanic
Sat 04:48:00 PM 26.4995 -145.0022 245° Southwest 463 533 34,000  Level FlightAware Transoceanic
Sat 04:49:00 PM 26.4445 -145.1321 245° Southwest 463 533 34,000  Level FlightAware Transoceanic
Sat 04:50:00 PM 26.3894 -145.2618 245° Southwest 463 533 34,000  Level FlightAware Transoceanic
Sat 04:51:00 PM 26.3341 -145.3915 245° Southwest 463 533 34,000  Level FlightAware Transoceanic
Sat 04:52:00 PM 26.2787 -145.5210 244° Southwest 463 533 34,000  Level FlightAware Transoceanic
Sat 04:53:00 PM 26.2232 -145.6504 244° Southwest 463 533 34,000  Level FlightAware Transoceanic
Sat 04:54:00 PM 26.1676 -145.7796 244° Southwest 463 533 34,000  Level FlightAware Transoceanic
Sat 04:55:00 PM 26.1118 -145.9088 244° Southwest 463 533 34,000  Level FlightAware Transoceanic
Sat 04:56:00 PM 26.0560 -146.0378 244° Southwest 463 533 34,000  Level FlightAware Transoceanic
Sat 04:57:00 PM 26.0000 -146.1667 244° Southwest 463 533 34,000  Level FlightAware Transoceanic
Sat 04:58:00 PM 25.9463 -146.2906 244° Southwest 463 533 34,000  Level FlightAware Transoceanic
Sat 04:59:00 PM 25.8925 -146.4144 244° Southwest 463 533 34,000  Level FlightAware Transoceanic
Sat 05:00:00 PM 25.8386 -146.5381 244° Southwest 463 533 34,000  Level FlightAware Transoceanic
Sat 05:00:37 PM 26.0000 -146.1667 244° Southwest 453 521 34,000  Level Oakland Oceanic (ODAPS)
Sat 05:01:00 PM 25.7846 -146.6617 244° Southwest 463 533 34,000  Level FlightAware Transoceanic
Sat 05:02:00 PM 25.7304 -146.7852 244° Southwest 463 533 34,000  Level FlightAware Transoceanic
Sat 05:03:00 PM 25.6762 -146.9086 244° Southwest 463 533 34,000  Level FlightAware Transoceanic
Sat 05:04:00 PM 25.6219 -147.0318 244° Southwest 463 533 34,000  Level FlightAware Transoceanic
Sat 05:05:00 PM 25.5675 -147.1550 244° Southwest 463 533 34,000  Level FlightAware Transoceanic
Sat 05:06:00 PM 25.5129 -147.2780 244° Southwest 463 533 34,000  Level FlightAware Transoceanic
Sat 05:07:00 PM 25.3920 -147.5497 244° Southwest 453 521 34,000  Level FlightAware Transoceanic
Sat 05:08:00 PM 25.3360 -147.6747 244° Southwest 453 521 34,000  Level FlightAware Transoceanic
Sat 05:09:00 PM 25.2800 -147.7997 244° Southwest 453 521 34,000  Level FlightAware Transoceanic
Sat 05:10:00 PM 25.2239 -147.9245 244° Southwest 453 521 34,000  Level FlightAware Transoceanic
Sat 05:11:00 PM 25.1677 -148.0491 243° Southwest 453 521 34,000  Level FlightAware Transoceanic
Sat 05:12:00 PM 25.1113 -148.1737 243° Southwest 453 521 34,000  Level FlightAware Transoceanic
Sat 05:13:00 PM 25.0549 -148.2982 243° Southwest 453 521 34,000  Level FlightAware Transoceanic
Sat 05:14:00 PM 24.9983 -148.4225 243° Southwest 453 521 34,000  Level FlightAware Transoceanic
Sat 05:15:00 PM 24.9417 -148.5467 243° Southwest 453 521 34,000  Level FlightAware Transoceanic
Sat 05:16:00 PM 24.8849 -148.6708 243° Southwest 453 521 34,000  Level FlightAware Transoceanic
Sat 05:17:00 PM 24.8281 -148.7948 243° Southwest 453 521 34,000  Level FlightAware Transoceanic
Sat 05:18:00 PM 24.7711 -148.9187 243° Southwest 453 521 34,000  Level FlightAware Transoceanic
Sat 05:19:00 PM 24.7141 -149.0425 243° Southwest 453 521 34,000  Level FlightAware Transoceanic
Sat 05:20:00 PM 24.6569 -149.1662 243° Southwest 453 521 34,000  Level FlightAware Transoceanic
Sat 05:21:00 PM 24.5996 -149.2897 243° Southwest 453 521 34,000  Level FlightAware Transoceanic
Sat 05:22:00 PM 24.5423 -149.4131 243° Southwest 453 521 34,000  Level FlightAware Transoceanic
Sat 05:23:00 PM 24.4848 -149.5365 243° Southwest 453 521 34,000  Level FlightAware Transoceanic
Sat 05:24:00 PM 24.4272 -149.6597 243° Southwest 453 521 34,000  Level FlightAware Transoceanic
Sat 05:25:00 PM 24.3696 -149.7827 243° Southwest 453 521 34,000  Level FlightAware Transoceanic
Sat 05:26:00 PM 24.3118 -149.9057 243° Southwest 453 521 34,000  Level FlightAware Transoceanic
Sat 05:27:00 PM 24.2540 -150.0286 243° Southwest 453 521 34,000  Level FlightAware Transoceanic
Sat 05:28:00 PM 24.1960 -150.1514 243° Southwest 453 521 34,000  Level FlightAware Transoceanic
Sat 05:29:00 PM 24.1380 -150.2740 243° Southwest 453 521 34,000  Level FlightAware Transoceanic
Sat 05:30:00 PM 24.0798 -150.3965 243° Southwest 453 521 34,000  Level FlightAware Transoceanic
Sat 05:31:00 PM 24.0215 -150.5190 242° Southwest 453 521 34,000  Level FlightAware Transoceanic
Sat 05:32:00 PM 23.9632 -150.6413 242° Southwest 453 521 34,000  Level FlightAware Transoceanic
Sat 05:33:00 PM 23.9047 -150.7635 242° Southwest 453 521 34,000  Level FlightAware Transoceanic
Sat 05:34:00 PM 23.8462 -150.8855 242° Southwest 453 521 34,000  Level FlightAware Transoceanic
Sat 05:35:00 PM 23.7876 -151.0075 242° Southwest 453 521 34,000  Level FlightAware Transoceanic
Sat 05:36:00 PM 23.7288 -151.1294 242° Southwest 453 521 34,000  Level FlightAware Transoceanic
Sat 05:37:00 PM 23.6700 -151.2512 242° Southwest 453 521 34,000  Level FlightAware Transoceanic
Sat 05:38:00 PM 23.6111 -151.3728 242° Southwest 453 521 34,000  Level FlightAware Transoceanic
Sat 05:39:00 PM 23.5520 -151.4944 242° Southwest 453 521 34,000  Level FlightAware Transoceanic
Sat 05:40:00 PM 23.4929 -151.6158 242° Southwest 453 521 34,000  Level FlightAware Transoceanic
Sat 05:41:00 PM 23.4337 -151.7371 242° Southwest 453 521 34,000  Level FlightAware Transoceanic
Sat 05:42:00 PM 23.3744 -151.8583 242° Southwest 453 521 34,000  Level FlightAware Transoceanic
Sat 05:43:00 PM 23.3150 -151.9794 242° Southwest 453 521 34,000  Level FlightAware Transoceanic
Sat 05:44:00 PM 23.2555 -152.1004 242° Southwest 453 521 34,000  Level FlightAware Transoceanic
Sat 05:45:00 PM 23.1960 -152.2213 242° Southwest 453 521 34,000  Level FlightAware Transoceanic
Sat 05:46:00 PM 23.1363 -152.3421 242° Southwest 453 521 34,000  Level FlightAware Transoceanic
Sat 05:47:00 PM 23.0765 -152.4628 242° Southwest 453 521 34,000  Level FlightAware Transoceanic
Sat 05:48:00 PM 23.0167 -152.5833 242° Southwest 453 521 34,000  Level FlightAware Transoceanic
Sat 05:49:00 PM 22.9580 -152.7020 242° Southwest 453 521 34,000  Level FlightAware Transoceanic
Sat 05:50:00 PM 22.8993 -152.8206 242° Southwest 453 521 34,000  Level FlightAware Transoceanic
Sat 05:51:00 PM 22.8404 -152.9391 242° Southwest 453 521 34,000  Level FlightAware Transoceanic
Sat 05:52:00 PM 22.7815 -153.0575 242° Southwest 453 521 34,000  Level FlightAware Transoceanic
Sat 05:52:00 PM 22.9167 -152.7833 241° Southwest 440 506 34,000  Level Honolulu Center
Sat 05:53:00 PM 22.7225 -153.1758 242° Southwest 453 521 34,000  Level FlightAware Transoceanic
Sat 05:53:00 PM 22.8667 -152.9000 245° Southwest 440 506 34,000  Level Honolulu Center
Sat 05:54:00 PM 22.6634 -153.2939 242° Southwest 453 521 34,000  Level FlightAware Transoceanic
Sat 05:54:00 PM 22.8167 -153.0000 242° Southwest 450 518 34,000  Level Honolulu Center
Sat 05:55:00 PM 22.6042 -153.4120 241° Southwest 453 521 34,000  Level FlightAware Transoceanic
Sat 05:55:00 PM 22.7500 -153.1333 242° Southwest 440 506 34,000  Level Honolulu Center
Sat 05:56:00 PM 22.5450 -153.5300 241° Southwest 453 521 34,000  Level FlightAware Transoceanic
Sat 05:56:00 PM 22.7000 -153.2667 248° West 430 495 34,000  Level Honolulu Center
Sat 05:57:00 PM 22.4856 -153.6479 241° Southwest 453 521 34,000  Level FlightAware Transoceanic
Sat 05:57:01 PM 22.6667 -153.3833 253° West 440 506 34,000  Level Honolulu Center
Sat 05:58:01 PM 22.6333 -153.5167 255° West 430 495 34,000  Level Honolulu Center
Sat 05:59:00 PM 22.6000 -153.6333 253° West 430 495 34,000  Level Honolulu Center
Sat 06:00:01 PM 22.5667 -153.7667 255° West 430 495 34,000  Level Honolulu Center
Sat 06:01:01 PM 22.5333 -153.8833 253° West 430 495 34,000  Level Honolulu Center
Sat 06:02:01 PM 22.5000 -154.0167 255° West 420 483 34,000  Level Honolulu Center
Sat 06:03:01 PM 22.4500 -154.1333 245° Southwest 420 483 34,000  Level Honolulu Center
Sat 06:04:01 PM 22.4167 -154.2500 253° West 430 495 34,000  Level Honolulu Center
Sat 06:05:01 PM 22.3833 -154.3833 255° West 430 495 34,000  Level Honolulu Center
Sat 06:06:01 PM 22.3500 -154.5000 253° West 420 483 34,000  Level Honolulu Center
Sat 06:07:02 PM 22.3167 -154.6167 253° West 430 495 34,000  Level Honolulu Center
Sat 06:08:02 PM 22.2833 -154.7333 253° West 410 472 34,000  Level Honolulu Center
Sat 06:09:02 PM 22.2333 -154.8500 245° Southwest 420 483 34,000 -250 Level Honolulu Center
Sat 06:10:02 PM 22.2000 -154.9833 255° West 420 483 33,500 -1,300 Descending Honolulu Center
Sat 06:11:02 PM 22.1667 -155.1000 253° West 440 506 31,400 -1,750 Descending Honolulu Center
Sat 06:12:02 PM 22.1333 -155.2333 255° West 450 518 30,000 -700 Descending Honolulu Center
Sat 06:13:02 PM 22.0833 -155.3500 245° Southwest 450 518 30,000  Level Honolulu Center
Sat 06:14:02 PM 22.0500 -155.4833 255° West 450 518 30,000  Level Honolulu Center
Sat 06:15:02 PM 22.0167 -155.6167 255° West 440 506 30,000  Level Honolulu Center
Sat 06:16:03 PM 21.9667 -155.7333 245° Southwest 440 506 30,000 -99 Level Honolulu Center
Sat 06:17:03 PM 21.9333 -155.8500 253° West 420 483 29,800 -600 Descending Honolulu Center
Sat 06:18:03 PM 21.9000 -155.9833 255° West 420 483 28,800 -1,000 Descending Honolulu Center
Sat 06:19:03 PM 21.9000 -156.1000 270° West 410 472 27,800 -950 Descending Honolulu Center
Sat 06:20:03 PM 21.9167 -156.2000 280° West 380 437 26,900 -900 Descending Honolulu Center
Sat 06:21:03 PM 21.9333 -156.3167 279° West 360 414 26,000 -700 Descending Honolulu Center
Sat 06:22:03 PM 21.9667 -156.4167 290° West 350 403 25,500 -450 Descending Honolulu Center
Sat 06:23:03 PM 21.9500 -156.5167 260° West 350 403 25,100 -450 Descending Honolulu Center
Sat 06:24:03 PM 21.9000 -156.6000 237° Southwest 340 391 24,600 -496 Descending Honolulu Center
Sat 06:25:04 PM 21.8500 -156.6833 237° Southwest 330 380 24,100 -496 Descending Honolulu Center
Sat 06:26:04 PM 21.8000 -156.7667 237° Southwest 340 391 23,600 -500 Descending Honolulu Center
Sat 06:27:04 PM 21.7667 -156.8500 247° West 340 391 23,100 -500 Descending Honolulu Center
Sat 06:28:04 PM 21.7167 -156.9333 237° Southwest 340 391 22,600 -500 Descending Honolulu Center
Sat 06:29:04 PM 21.6667 -157.0333 242° Southwest 330 380 22,100 -500 Descending Honolulu Center
Sat 06:30:04 PM 21.6167 -157.1167 237° Southwest 320 368 21,600 -900 Descending Honolulu Center
Sat 06:31:04 PM 21.5667 -157.2000 237° Southwest 320 368 20,300 -1,438 Descending Honolulu Center
Sat 06:32:05 PM 21.5333 -157.2833 247° West 300 345 18,700 -1,650 Descending Honolulu Center
Sat 06:33:04 PM 21.4833 -157.3667 237° Southwest 300 345 17,000 -1,550 Descending Honolulu Center
Sat 06:34:05 PM 21.4500 -157.4333 242° Southwest 300 345 15,600 -1,388 Descending Honolulu Center
Sat 06:35:05 PM 21.4167 -157.5333 250° West 290 334 14,200 -1,400 Descending Honolulu Center
Sat 06:36:05 PM 21.3833 -157.6000 242° Southwest 280 322 12,800 -1,450 Descending Honolulu Center
Sat 06:37:05 PM 21.3500 -157.6833 247° West 280 322 11,300 -1,450 Descending Honolulu Center
Sat 06:38:05 PM 21.3167 -157.7667 247° West 280 322 9,900 -1,400 Descending Honolulu Center

Login

Don't have an account? Register now (free) for customized features, flight alerts, and more!